sensor_id;sensor_type;location;lat;lon;timestamp;pressure;altitude;pressure_sealevel;temperature;humidity
59329;BME280;45100;46.926;7.452;2023-07-13T00:01:29;95382.11;;;18.33;100.00
59329;BME280;45100;46.926;7.452;2023-07-13T00:04:00;95410.60;;;18.38;100.00
59329;BME280;45100;46.926;7.452;2023-07-13T00:09:07;95433.88;;;18.34;100.00
59329;BME280;45100;46.926;7.452;2023-07-13T00:11:36;95437.05;;;18.32;100.00
59329;BME280;45100;46.926;7.452;2023-07-13T00:14:07;95429.66;;;18.30;100.00
59329;BME280;45100;46.926;7.452;2023-07-13T00:16:39;95417.04;;;18.31;100.00
59329;BME280;45100;46.926;7.452;2023-07-13T00:19:08;95404.51;;;18.36;100.00
59329;BME280;45100;46.926;7.452;2023-07-13T00:21:39;95407.44;;;18.41;100.00
59329;BME280;45100;46.926;7.452;2023-07-13T00:24:17;95409.94;;;18.46;100.00
59329;BME280;45100;46.926;7.452;2023-07-13T00:26:40;95417.62;;;18.49;100.00
59329;BME280;45100;46.926;7.452;2023-07-13T00:29:10;95420.48;;;18.49;100.00
59329;BME280;45100;46.926;7.452;2023-07-13T00:31:41;95421.98;;;18.47;100.00
59329;BME280;45100;46.926;7.452;2023-07-13T00:34:11;95417.90;;;18.43;100.00
59329;BME280;45100;46.926;7.452;2023-07-13T00:36:42;95419.34;;;18.39;100.00
59329;BME280;45100;46.926;7.452;2023-07-13T00:39:13;95421.68;;;18.35;100.00
59329;BME280;45100;46.926;7.452;2023-07-13T00:41:45;95425.99;;;18.33;100.00
59329;BME280;45100;46.926;7.452;2023-07-13T00:44:19;95414.16;;;18.33;100.00
59329;BME280;45100;46.926;7.452;2023-07-13T00:46:46;95414.81;;;18.36;100.00
59329;BME280;45100;46.926;7.452;2023-07-13T00:49:20;95416.38;;;18.38;100.00
59329;BME280;45100;46.926;7.452;2023-07-13T00:51:54;95417.19;;;18.40;100.00
59329;BME280;45100;46.926;7.452;2023-07-13T00:54:29;95426.62;;;18.40;100.00
59329;BME280;45100;46.926;7.452;2023-07-13T00:56:50;95434.66;;;18.41;100.00
59329;BME280;45100;46.926;7.452;2023-07-13T00:59:19;95440.44;;;18.42;100.00
59329;BME280;45100;46.926;7.452;2023-07-13T01:01:48;95440.70;;;18.38;100.00
59329;BME280;45100;46.926;7.452;2023-07-13T01:04:18;95443.86;;;18.31;100.00
59329;BME280;45100;46.926;7.452;2023-07-13T01:06:49;95432.03;;;18.16;100.00
59329;BME280;45100;46.926;7.452;2023-07-13T01:09:21;95419.02;;;18.09;100.00
59329;BME280;45100;46.926;7.452;2023-07-13T01:11:51;95420.87;;;18.05;100.00
59329;BME280;45100;46.926;7.452;2023-07-13T01:14:21;95413.41;;;18.03;100.00
59329;BME280;45100;46.926;7.452;2023-07-13T01:16:53;95405.27;;;18.01;100.00
59329;BME280;45100;46.926;7.452;2023-07-13T01:21:55;95401.02;;;18.00;100.00
59329;BME280;45100;46.926;7.452;2023-07-13T01:24:26;95405.70;;;17.98;100.00
59329;BME280;45100;46.926;7.452;2023-07-13T01:29:30;95397.80;;;17.92;100.00
59329;BME280;45100;46.926;7.452;2023-07-13T01:32:01;95396.28;;;17.95;100.00
59329;BME280;45100;46.926;7.452;2023-07-13T01:37:04;95397.44;;;17.97;100.00
59329;BME280;45100;46.926;7.452;2023-07-13T01:39:33;95397.31;;;17.95;100.00
59329;BME280;45100;46.926;7.452;2023-07-13T01:42:04;95395.75;;;17.94;100.00
59329;BME280;45100;46.926;7.452;2023-07-13T01:44:34;95396.01;;;17.92;100.00
59329;BME280;45100;46.926;7.452;2023-07-13T01:47:05;95399.81;;;17.89;100.00
59329;BME280;45100;46.926;7.452;2023-07-13T01:49:35;95398.73;;;17.86;100.00
59329;BME280;45100;46.926;7.452;2023-07-13T01:52:06;95394.69;;;17.82;99.57
59329;BME280;45100;46.926;7.452;2023-07-13T01:54:36;95393.65;;;17.79;99.59
59329;BME280;45100;46.926;7.452;2023-07-13T01:57:07;95394.04;;;17.77;99.95
59329;BME280;45100;46.926;7.452;2023-07-13T01:59:38;95390.62;;;17.76;99.72
59329;BME280;45100;46.926;7.452;2023-07-13T02:02:09;95394.72;;;17.75;99.73
59329;BME280;45100;46.926;7.452;2023-07-13T02:04:40;95390.20;;;17.72;99.47
59329;BME280;45100;46.926;7.452;2023-07-13T02:07:10;95389.98;;;17.69;99.37
59329;BME280;45100;46.926;7.452;2023-07-13T02:09:40;95390.69;;;17.67;99.69
59329;BME280;45100;46.926;7.452;2023-07-13T02:12:11;95384.41;;;17.66;100.00
59329;BME280;45100;46.926;7.452;2023-07-13T02:14:42;95384.58;;;17.66;100.00
59329;BME280;45100;46.926;7.452;2023-07-13T02:17:13;95385.98;;;17.65;100.00
59329;BME280;45100;46.926;7.452;2023-07-13T02:19:43;95390.52;;;17.67;100.00
59329;BME280;45100;46.926;7.452;2023-07-13T02:22:14;95391.55;;;17.68;100.00
59329;BME280;45100;46.926;7.452;2023-07-13T02:24:45;95402.73;;;17.70;100.00
59329;BME280;45100;46.926;7.452;2023-07-13T02:27:15;95404.68;;;17.71;100.00
59329;BME280;45100;46.926;7.452;2023-07-13T02:29:46;95410.73;;;17.69;100.00
59329;BME280;45100;46.926;7.452;2023-07-13T02:32:17;95412.14;;;17.66;100.00
59329;BME280;45100;46.926;7.452;2023-07-13T02:34:48;95406.36;;;17.60;100.00
59329;BME280;45100;46.926;7.452;2023-07-13T02:37:18;95401.89;;;17.57;100.00
59329;BME280;45100;46.926;7.452;2023-07-13T02:39:49;95393.38;;;17.56;100.00
59329;BME280;45100;46.926;7.452;2023-07-13T02:42:20;95396.10;;;17.56;100.00
59329;BME280;45100;46.926;7.452;2023-07-13T02:44:51;95401.29;;;17.57;100.00
59329;BME280;45100;46.926;7.452;2023-07-13T02:47:21;95392.78;;;17.59;100.00
59329;BME280;45100;46.926;7.452;2023-07-13T02:49:52;95393.23;;;17.60;100.00
59329;BME280;45100;46.926;7.452;2023-07-13T02:52:23;95393.99;;;17.60;100.00
59329;BME280;45100;46.926;7.452;2023-07-13T02:54:54;95390.28;;;17.59;100.00
59329;BME280;45100;46.926;7.452;2023-07-13T02:57:24;95393.41;;;17.61;100.00
59329;BME280;45100;46.926;7.452;2023-07-13T02:59:55;95395.50;;;17.61;100.00
59329;BME280;45100;46.926;7.452;2023-07-13T03:02:28;95391.70;;;17.62;100.00
59329;BME280;45100;46.926;7.452;2023-07-13T03:04:56;95387.17;;;17.58;100.00
59329;BME280;45100;46.926;7.452;2023-07-13T03:07:27;95386.52;;;17.54;100.00
59329;BME280;45100;46.926;7.452;2023-07-13T03:09:58;95387.38;;;17.53;100.00
59329;BME280;45100;46.926;7.452;2023-07-13T03:15:02;95385.42;;;17.55;100.00
59329;BME280;45100;46.926;7.452;2023-07-13T03:17:32;95391.43;;;17.57;100.00
59329;BME280;45100;46.926;7.452;2023-07-13T03:20:04;95394.75;;;17.59;100.00
59329;BME280;45100;46.926;7.452;2023-07-13T03:25:05;95392.97;;;17.64;100.00
59329;BME280;45100;46.926;7.452;2023-07-13T03:27:35;95395.91;;;17.63;100.00
59329;BME280;45100;46.926;7.452;2023-07-13T03:30:07;95396.92;;;17.59;100.00
59329;BME280;45100;46.926;7.452;2023-07-13T03:32:37;95396.28;;;17.58;100.00
59329;BME280;45100;46.926;7.452;2023-07-13T03:35:09;95393.98;;;17.56;100.00
59329;BME280;45100;46.926;7.452;2023-07-13T03:37:43;95389.62;;;17.56;100.00
59329;BME280;45100;46.926;7.452;2023-07-13T03:40:10;95388.97;;;17.56;100.00
59329;BME280;45100;46.926;7.452;2023-07-13T03:42:39;95394.15;;;17.57;100.00
59329;BME280;45100;46.926;7.452;2023-07-13T03:45:10;95393.27;;;17.56;100.00
59329;BME280;45100;46.926;7.452;2023-07-13T03:47:40;95388.74;;;17.55;100.00
59329;BME280;45100;46.926;7.452;2023-07-13T03:50:11;95382.81;;;17.56;100.00
59329;BME280;45100;46.926;7.452;2023-07-13T03:52:42;95384.34;;;17.57;100.00
59329;BME280;45100;46.926;7.452;2023-07-13T03:55:13;95390.88;;;17.58;100.00
59329;BME280;45100;46.926;7.452;2023-07-13T03:57:44;95380.10;;;17.60;100.00
59329;BME280;45100;46.926;7.452;2023-07-13T04:00:15;95379.23;;;17.60;100.00
59329;BME280;45100;46.926;7.452;2023-07-13T04:02:47;95387.24;;;17.60;100.00
59329;BME280;45100;46.926;7.452;2023-07-13T04:05:15;95398.13;;;17.60;100.00
59329;BME280;45100;46.926;7.452;2023-07-13T04:07:46;95406.36;;;17.60;100.00
59329;BME280;45100;46.926;7.452;2023-07-13T04:10:17;95407.80;;;17.58;100.00
59329;BME280;45100;46.926;7.452;2023-07-13T04:12:48;95415.22;;;17.59;100.00
59329;BME280;45100;46.926;7.452;2023-07-13T04:15:18;95417.25;;;17.60;100.00
59329;BME280;45100;46.926;7.452;2023-07-13T04:17:49;95417.75;;;17.61;100.00
59329;BME280;45100;46.926;7.452;2023-07-13T04:20:22;95424.09;;;17.61;100.00
59329;BME280;45100;46.926;7.452;2023-07-13T04:22:50;95421.27;;;17.61;100.00
59329;BME280;45100;46.926;7.452;2023-07-13T04:25:21;95421.92;;;17.60;100.00
59329;BME280;45100;46.926;7.452;2023-07-13T04:27:52;95438.47;;;17.56;100.00
59329;BME280;45100;46.926;7.452;2023-07-13T04:30:23;95446.25;;;17.50;100.00
59329;BME280;45100;46.926;7.452;2023-07-13T04:32:53;95444.20;;;17.44;100.00
59329;BME280;45100;46.926;7.452;2023-07-13T04:35:24;95446.69;;;17.40;100.00
59329;BME280;45100;46.926;7.452;2023-07-13T04:37:53;95441.79;;;17.38;100.00
59329;BME280;45100;46.926;7.452;2023-07-13T04:40:27;95435.14;;;17.37;100.00
59329;BME280;45100;46.926;7.452;2023-07-13T04:42:55;95440.64;;;17.38;100.00
59329;BME280;45100;46.926;7.452;2023-07-13T04:45:24;95453.08;;;17.41;100.00
59329;BME280;45100;46.926;7.452;2023-07-13T04:47:55;95454.70;;;17.43;100.00
59329;BME280;45100;46.926;7.452;2023-07-13T04:50:26;95452.27;;;17.44;100.00
59329;BME280;45100;46.926;7.452;2023-07-13T04:52:57;95451.02;;;17.44;100.00
59329;BME280;45100;46.926;7.452;2023-07-13T04:58:04;95455.70;;;17.45;100.00
59329;BME280;45100;46.926;7.452;2023-07-13T05:00:34;95460.02;;;17.45;100.00
59329;BME280;45100;46.926;7.452;2023-07-13T05:03:04;95462.30;;;17.45;100.00
59329;BME280;45100;46.926;7.452;2023-07-13T05:05:34;95469.05;;;17.45;100.00
59329;BME280;45100;46.926;7.452;2023-07-13T05:08:05;95470.95;;;17.45;100.00
59329;BME280;45100;46.926;7.452;2023-07-13T05:10:36;95475.89;;;17.42;100.00
59329;BME280;45100;46.926;7.452;2023-07-13T05:13:07;95475.27;;;17.38;100.00
59329;BME280;45100;46.926;7.452;2023-07-13T05:15:38;95476.97;;;17.36;100.00
59329;BME280;45100;46.926;7.452;2023-07-13T05:18:08;95477.83;;;17.35;100.00
59329;BME280;45100;46.926;7.452;2023-07-13T05:20:39;95480.33;;;17.37;100.00
59329;BME280;45100;46.926;7.452;2023-07-13T05:23:10;95482.20;;;17.39;100.00
59329;BME280;45100;46.926;7.452;2023-07-13T05:25:41;95479.53;;;17.40;100.00
59329;BME280;45100;46.926;7.452;2023-07-13T05:28:11;95484.65;;;17.41;100.00
59329;BME280;45100;46.926;7.452;2023-07-13T05:30:46;95485.53;;;17.42;100.00
59329;BME280;45100;46.926;7.452;2023-07-13T05:33:13;95487.61;;;17.44;100.00
59329;BME280;45100;46.926;7.452;2023-07-13T05:35:44;95481.20;;;17.48;100.00
59329;BME280;45100;46.926;7.452;2023-07-13T05:38:15;95481.16;;;17.53;100.00
59329;BME280;45100;46.926;7.452;2023-07-13T05:40:46;95491.58;;;17.57;100.00
59329;BME280;45100;46.926;7.452;2023-07-13T05:43:16;95494.73;;;17.61;100.00
59329;BME280;45100;46.926;7.452;2023-07-13T05:45:47;95498.73;;;17.66;100.00
59329;BME280;45100;46.926;7.452;2023-07-13T05:48:17;95498.80;;;17.69;100.00
59329;BME280;45100;46.926;7.452;2023-07-13T05:50:48;95497.17;;;17.72;100.00
59329;BME280;45100;46.926;7.452;2023-07-13T05:53:19;95496.36;;;17.75;100.00
59329;BME280;45100;46.926;7.452;2023-07-13T05:55:54;95496.47;;;17.79;100.00
59329;BME280;45100;46.926;7.452;2023-07-13T05:58:20;95499.94;;;17.82;100.00
59329;BME280;45100;46.926;7.452;2023-07-13T06:01:03;95498.38;;;17.87;100.00
59329;BME280;45100;46.926;7.452;2023-07-13T06:05:54;95497.03;;;17.90;100.00
59329;BME280;45100;46.926;7.452;2023-07-13T06:08:24;95492.78;;;17.90;100.00
59329;BME280;45100;46.926;7.452;2023-07-13T06:11:04;95499.42;;;17.92;100.00
59329;BME280;45100;46.926;7.452;2023-07-13T06:13:25;95502.49;;;17.91;100.00
59329;BME280;45100;46.926;7.452;2023-07-13T06:15:55;95505.14;;;17.89;100.00
59329;BME280;45100;46.926;7.452;2023-07-13T06:18:26;95509.66;;;17.86;100.00
59329;BME280;45100;46.926;7.452;2023-07-13T06:20:57;95517.02;;;17.84;99.99
59329;BME280;45100;46.926;7.452;2023-07-13T06:23:27;95525.39;;;17.79;99.73
59329;BME280;45100;46.926;7.452;2023-07-13T06:25:58;95531.56;;;17.73;100.00
59329;BME280;45100;46.926;7.452;2023-07-13T06:28:29;95534.11;;;17.70;100.00
59329;BME280;45100;46.926;7.452;2023-07-13T06:30:59;95533.77;;;17.69;100.00
59329;BME280;45100;46.926;7.452;2023-07-13T06:33:29;95527.67;;;17.71;100.00
59329;BME280;45100;46.926;7.452;2023-07-13T06:36:01;95526.12;;;17.75;100.00
59329;BME280;45100;46.926;7.452;2023-07-13T06:38:31;95523.98;;;17.81;100.00
59329;BME280;45100;46.926;7.452;2023-07-13T06:41:01;95520.13;;;17.88;100.00
59329;BME280;45100;46.926;7.452;2023-07-13T06:43:32;95517.48;;;17.96;100.00
59329;BME280;45100;46.926;7.452;2023-07-13T06:46:03;95514.28;;;18.02;100.00
59329;BME280;45100;46.926;7.452;2023-07-13T06:48:33;95520.44;;;18.07;100.00
59329;BME280;45100;46.926;7.452;2023-07-13T06:51:04;95528.95;;;18.11;99.45
59329;BME280;45100;46.926;7.452;2023-07-13T06:53:35;95531.91;;;18.17;98.90
59329;BME280;45100;46.926;7.452;2023-07-13T06:56:06;95538.12;;;18.14;96.32
59329;BME280;45100;46.926;7.452;2023-07-13T06:58:36;95538.94;;;18.12;96.77
59329;BME280;45100;46.926;7.452;2023-07-13T07:01:06;95536.41;;;18.13;96.34
59329;BME280;45100;46.926;7.452;2023-07-13T07:03:36;95542.95;;;18.13;96.19
59329;BME280;45100;46.926;7.452;2023-07-13T07:06:16;95545.58;;;18.14;96.62
59329;BME280;45100;46.926;7.452;2023-07-13T07:08:37;95555.40;;;18.15;96.66
59329;BME280;45100;46.926;7.452;2023-07-13T07:11:11;95549.95;;;18.15;97.17
59329;BME280;45100;46.926;7.452;2023-07-13T07:13:39;95557.36;;;18.17;97.02
59329;BME280;45100;46.926;7.452;2023-07-13T07:16:09;95560.09;;;18.20;97.93
59329;BME280;45100;46.926;7.452;2023-07-13T07:18:40;95556.77;;;18.25;98.92
59329;BME280;45100;46.926;7.452;2023-07-13T07:21:11;95557.89;;;18.30;98.20
59329;BME280;45100;46.926;7.452;2023-07-13T07:23:42;95558.53;;;18.35;98.10
59329;BME280;45100;46.926;7.452;2023-07-13T07:26:12;95555.27;;;18.40;97.65
59329;BME280;45100;46.926;7.452;2023-07-13T07:28:43;95559.59;;;18.45;97.25
59329;BME280;45100;46.926;7.452;2023-07-13T07:31:14;95562.16;;;18.45;95.96
59329;BME280;45100;46.926;7.452;2023-07-13T07:33:44;95565.64;;;18.45;96.05
59329;BME280;45100;46.926;7.452;2023-07-13T07:36:15;95568.31;;;18.48;97.29
59329;BME280;45100;46.926;7.452;2023-07-13T07:38:45;95567.45;;;18.54;97.32
59329;BME280;45100;46.926;7.452;2023-07-13T07:41:16;95564.11;;;18.58;96.41
59329;BME280;45100;46.926;7.452;2023-07-13T07:43:46;95567.88;;;18.65;95.85
59329;BME280;45100;46.926;7.452;2023-07-13T07:46:17;95572.90;;;18.70;94.75
59329;BME280;45100;46.926;7.452;2023-07-13T07:48:47;95576.36;;;18.73;93.67
59329;BME280;45100;46.926;7.452;2023-07-13T07:51:18;95577.03;;;18.74;94.16
59329;BME280;45100;46.926;7.452;2023-07-13T07:53:48;95579.77;;;18.78;93.31
59329;BME280;45100;46.926;7.452;2023-07-13T07:56:19;95575.39;;;18.79;92.67
59329;BME280;45100;46.926;7.452;2023-07-13T07:58:50;95578.19;;;18.84;92.99
59329;BME280;45100;46.926;7.452;2023-07-13T08:01:20;95579.42;;;18.92;91.94
59329;BME280;45100;46.926;7.452;2023-07-13T08:03:51;95580.45;;;19.03;92.15
59329;BME280;45100;46.926;7.452;2023-07-13T08:06:24;95575.08;;;19.18;90.93
59329;BME280;45100;46.926;7.452;2023-07-13T08:08:52;95574.06;;;19.38;89.87
59329;BME280;45100;46.926;7.452;2023-07-13T08:11:23;95576.97;;;19.57;90.13
59329;BME280;45100;46.926;7.452;2023-07-13T08:13:54;95580.39;;;19.72;89.66
59329;BME280;45100;46.926;7.452;2023-07-13T08:16:26;95582.62;;;19.86;88.44
59329;BME280;45100;46.926;7.452;2023-07-13T08:18:55;95581.33;;;19.97;86.52
59329;BME280;45100;46.926;7.452;2023-07-13T08:21:24;95586.78;;;20.06;86.64
59329;BME280;45100;46.926;7.452;2023-07-13T08:23:55;95588.95;;;20.14;86.76
59329;BME280;45100;46.926;7.452;2023-07-13T08:26:26;95592.94;;;20.14;86.23
59329;BME280;45100;46.926;7.452;2023-07-13T08:28:57;95594.23;;;20.09;85.74
59329;BME280;45100;46.926;7.452;2023-07-13T08:31:27;95591.77;;;20.04;85.73
59329;BME280;45100;46.926;7.452;2023-07-13T08:33:58;95586.34;;;19.99;86.27
59329;BME280;45100;46.926;7.452;2023-07-13T08:36:29;95581.42;;;20.00;86.95
59329;BME280;45100;46.926;7.452;2023-07-13T08:38:59;95583.02;;;20.03;86.65
59329;BME280;45100;46.926;7.452;2023-07-13T08:41:29;95579.30;;;20.08;86.87
59329;BME280;45100;46.926;7.452;2023-07-13T08:44:02;95585.15;;;20.16;86.90
59329;BME280;45100;46.926;7.452;2023-07-13T08:46:35;95583.53;;;20.22;85.31
59329;BME280;45100;46.926;7.452;2023-07-13T08:49:04;95587.53;;;20.31;85.90
59329;BME280;45100;46.926;7.452;2023-07-13T08:51:44;95586.16;;;20.40;85.60
59329;BME280;45100;46.926;7.452;2023-07-13T08:54:12;95587.80;;;20.49;85.99
59329;BME280;45100;46.926;7.452;2023-07-13T08:56:33;95593.59;;;20.55;85.67
59329;BME280;45100;46.926;7.452;2023-07-13T08:59:13;95595.48;;;20.58;85.19
59329;BME280;45100;46.926;7.452;2023-07-13T09:04:09;95592.42;;;20.58;84.74
59329;BME280;45100;46.926;7.452;2023-07-13T09:07:00;95591.64;;;20.54;84.28
59329;BME280;45100;46.926;7.452;2023-07-13T09:09:16;95596.46;;;20.47;84.15
59329;BME280;45100;46.926;7.452;2023-07-13T09:11:52;95601.62;;;20.34;84.22
59329;BME280;45100;46.926;7.452;2023-07-13T09:14:19;95603.57;;;20.21;85.30
59329;BME280;45100;46.926;7.452;2023-07-13T09:16:40;95606.12;;;20.15;86.06
59329;BME280;45100;46.926;7.452;2023-07-13T09:19:20;95609.84;;;20.12;86.23
59329;BME280;45100;46.926;7.452;2023-07-13T09:21:42;95604.89;;;20.08;86.56
59329;BME280;45100;46.926;7.452;2023-07-13T09:24:36;95604.83;;;20.08;86.93
59329;BME280;45100;46.926;7.452;2023-07-13T09:26:39;95604.50;;;20.08;85.87
59329;BME280;45100;46.926;7.452;2023-07-13T09:29:23;95602.84;;;20.02;86.16
59329;BME280;45100;46.926;7.452;2023-07-13T09:31:47;95605.86;;;20.00;87.62
59329;BME280;45100;46.926;7.452;2023-07-13T09:36:45;95605.72;;;20.05;88.01
59329;BME280;45100;46.926;7.452;2023-07-13T09:39:35;95614.20;;;20.06;87.83
59329;BME280;45100;46.926;7.452;2023-07-13T09:44:18;95616.53;;;19.96;88.25
59329;BME280;45100;46.926;7.452;2023-07-13T09:46:54;95614.28;;;19.95;89.23
59329;BME280;45100;46.926;7.452;2023-07-13T09:49:17;95614.22;;;19.99;89.23
59329;BME280;45100;46.926;7.452;2023-07-13T09:51:47;95610.26;;;20.06;88.78
59329;BME280;45100;46.926;7.452;2023-07-13T09:54:20;95611.14;;;20.14;88.63
59329;BME280;45100;46.926;7.452;2023-07-13T09:56:53;95613.16;;;20.27;88.43
59329;BME280;45100;46.926;7.452;2023-07-13T09:59:21;95612.58;;;20.40;87.79
59329;BME280;45100;46.926;7.452;2023-07-13T10:01:50;95615.27;;;20.52;86.34
59329;BME280;45100;46.926;7.452;2023-07-13T10:04:30;95613.66;;;20.65;85.59
59329;BME280;45100;46.926;7.452;2023-07-13T10:07:06;95615.24;;;20.75;84.36
59329;BME280;45100;46.926;7.452;2023-07-13T10:09:21;95619.61;;;20.83;83.07
59329;BME280;45100;46.926;7.452;2023-07-13T10:11:52;95619.98;;;20.92;82.51
59329;BME280;45100;46.926;7.452;2023-07-13T10:17:04;95618.91;;;21.10;80.42
59329;BME280;45100;46.926;7.452;2023-07-13T10:19:35;95623.53;;;21.14;76.35
59329;BME280;45100;46.926;7.452;2023-07-13T10:22:14;95622.27;;;21.14;78.65
59329;BME280;45100;46.926;7.452;2023-07-13T10:24:36;95619.12;;;21.16;77.76
59329;BME280;45100;46.926;7.452;2023-07-13T10:27:11;95615.81;;;21.18;76.06
59329;BME280;45100;46.926;7.452;2023-07-13T10:29:37;95619.86;;;21.21;78.74
59329;BME280;45100;46.926;7.452;2023-07-13T10:32:09;95614.63;;;21.28;79.03
59329;BME280;45100;46.926;7.452;2023-07-13T10:37:15;95613.16;;;21.53;74.21
59329;BME280;45100;46.926;7.452;2023-07-13T10:39:38;95616.42;;;21.55;74.71
59329;BME280;45100;46.926;7.452;2023-07-13T10:42:12;95612.89;;;21.51;73.44
59329;BME280;45100;46.926;7.452;2023-07-13T10:44:37;95610.77;;;21.46;73.29
59329;BME280;45100;46.926;7.452;2023-07-13T10:47:14;95612.41;;;21.42;75.52
59329;BME280;45100;46.926;7.452;2023-07-13T10:49:40;95616.41;;;21.41;76.13
59329;BME280;45100;46.926;7.452;2023-07-13T10:54:40;95614.77;;;21.40;73.68
59329;BME280;45100;46.926;7.452;2023-07-13T10:57:20;95612.71;;;21.43;74.52
59329;BME280;45100;46.926;7.452;2023-07-13T10:59:42;95612.40;;;21.51;74.97
59329;BME280;45100;46.926;7.452;2023-07-13T11:02:25;95609.70;;;21.64;74.59
59329;BME280;45100;46.926;7.452;2023-07-13T11:04:45;95600.59;;;21.75;73.43
59329;BME280;45100;46.926;7.452;2023-07-13T11:09:49;95598.13;;;21.97;72.36
59329;BME280;45100;46.926;7.452;2023-07-13T11:15:05;95593.62;;;22.07;67.36
59329;BME280;45100;46.926;7.452;2023-07-13T11:17:50;95602.56;;;22.07;67.44
59329;BME280;45100;46.926;7.452;2023-07-13T11:19:52;95602.31;;;22.09;66.40
59329;BME280;45100;46.926;7.452;2023-07-13T11:22:25;95598.23;;;22.06;65.90
59329;BME280;45100;46.926;7.452;2023-07-13T11:24:57;95602.62;;;22.07;68.14
59329;BME280;45100;46.926;7.452;2023-07-13T11:27:38;95600.80;;;22.19;71.25
59329;BME280;45100;46.926;7.452;2023-07-13T11:32:31;95598.94;;;22.46;67.95
59329;BME280;45100;46.926;7.452;2023-07-13T11:34:54;95590.91;;;22.51;66.05
59329;BME280;45100;46.926;7.452;2023-07-13T11:37:26;95588.21;;;22.52;67.90
59329;BME280;45100;46.926;7.452;2023-07-13T11:39:55;95583.59;;;22.53;66.66
59329;BME280;45100;46.926;7.452;2023-07-13T11:42:26;95585.45;;;22.60;66.60
59329;BME280;45100;46.926;7.452;2023-07-13T11:44:57;95585.73;;;22.72;65.46
59329;BME280;45100;46.926;7.452;2023-07-13T11:47:30;95589.95;;;22.90;64.93
59329;BME280;45100;46.926;7.452;2023-07-13T11:49:58;95587.97;;;23.02;64.51
59329;BME280;45100;46.926;7.452;2023-07-13T11:52:33;95584.64;;;23.06;61.50
59329;BME280;45100;46.926;7.452;2023-07-13T11:55:03;95583.86;;;23.05;57.86
59329;BME280;45100;46.926;7.452;2023-07-13T12:00:09;95572.73;;;23.12;59.88
59329;BME280;45100;46.926;7.452;2023-07-13T12:02:34;95575.52;;;23.13;56.34
59329;BME280;45100;46.926;7.452;2023-07-13T12:05:04;95573.88;;;23.09;57.45
59329;BME280;45100;46.926;7.452;2023-07-13T12:07:33;95571.46;;;23.13;56.20
59329;BME280;45100;46.926;7.452;2023-07-13T12:10:23;95572.34;;;23.25;55.65
59329;BME280;45100;46.926;7.452;2023-07-13T12:12:34;95564.53;;;23.33;54.14
59329;BME280;45100;46.926;7.452;2023-07-13T12:15:08;95560.98;;;23.42;53.52
59329;BME280;45100;46.926;7.452;2023-07-13T12:17:35;95560.84;;;23.56;54.39
59329;BME280;45100;46.926;7.452;2023-07-13T12:20:24;95558.09;;;23.65;51.19
59329;BME280;45100;46.926;7.452;2023-07-13T12:22:36;95556.83;;;23.72;52.22
59329;BME280;45100;46.926;7.452;2023-07-13T12:25:11;95556.08;;;23.79;52.24
59329;BME280;45100;46.926;7.452;2023-07-13T12:27:38;95556.72;;;23.82;51.41
59329;BME280;45100;46.926;7.452;2023-07-13T12:30:29;95555.43;;;23.89;47.81
59329;BME280;45100;46.926;7.452;2023-07-13T12:32:37;95551.44;;;23.88;49.16
59329;BME280;45100;46.926;7.452;2023-07-13T12:35:17;95556.19;;;23.73;48.23
59329;BME280;45100;46.926;7.452;2023-07-13T12:37:41;95552.26;;;23.54;49.39
59329;BME280;45100;46.926;7.452;2023-07-13T12:40:14;95550.19;;;23.47;51.94
59329;BME280;45100;46.926;7.452;2023-07-13T12:42:40;95545.52;;;23.52;53.39
59329;BME280;45100;46.926;7.452;2023-07-13T12:45:25;95545.73;;;23.55;49.77
59329;BME280;45100;46.926;7.452;2023-07-13T12:47:44;95540.18;;;23.55;52.07
59329;BME280;45100;46.926;7.452;2023-07-13T12:50:16;95539.95;;;23.57;54.03
59329;BME280;45100;46.926;7.452;2023-07-13T12:57:54;95551.95;;;23.47;49.91
59329;BME280;45100;46.926;7.452;2023-07-13T13:00:30;95544.97;;;23.41;49.78
59329;BME280;45100;46.926;7.452;2023-07-13T13:02:54;95542.78;;;23.37;49.50
59329;BME280;45100;46.926;7.452;2023-07-13T13:05:27;95544.97;;;23.41;50.01
59329;BME280;45100;46.926;7.452;2023-07-13T13:10:26;95539.90;;;23.48;49.75
59329;BME280;45100;46.926;7.452;2023-07-13T13:12:56;95540.95;;;23.55;52.74
59329;BME280;45100;46.926;7.452;2023-07-13T13:15:27;95542.25;;;23.67;52.43
59329;BME280;45100;46.926;7.452;2023-07-13T13:17:59;95535.27;;;23.77;51.45
59329;BME280;45100;46.926;7.452;2023-07-13T13:20:28;95544.95;;;23.84;48.82
59329;BME280;45100;46.926;7.452;2023-07-13T13:22:59;95541.83;;;23.93;49.45
59329;BME280;45100;46.926;7.452;2023-07-13T13:25:30;95543.92;;;23.97;46.65
59329;BME280;45100;46.926;7.452;2023-07-13T13:28:00;95543.63;;;23.96;47.80
59329;BME280;45100;46.926;7.452;2023-07-13T13:30:30;95540.78;;;23.96;48.07
59329;BME280;45100;46.926;7.452;2023-07-13T13:33:01;95535.16;;;23.99;48.42
59329;BME280;45100;46.926;7.452;2023-07-13T13:35:33;95537.05;;;24.08;48.87
59329;BME280;45100;46.926;7.452;2023-07-13T13:38:11;95536.88;;;24.16;47.29
59329;BME280;45100;46.926;7.452;2023-07-13T13:40:34;95537.42;;;24.16;47.19
59329;BME280;45100;46.926;7.452;2023-07-13T13:43:16;95539.38;;;24.09;47.39
59329;BME280;45100;46.926;7.452;2023-07-13T13:45:35;95547.09;;;24.04;46.92
59329;BME280;45100;46.926;7.452;2023-07-13T13:50:39;95543.52;;;24.02;49.21
59329;BME280;45100;46.926;7.452;2023-07-13T13:53:11;95545.42;;;24.12;49.83
59329;BME280;45100;46.926;7.452;2023-07-13T13:55:40;95549.17;;;24.32;49.76
59329;BME280;45100;46.926;7.452;2023-07-13T13:58:09;95543.02;;;24.48;44.25
59329;BME280;45100;46.926;7.452;2023-07-13T14:00:39;95545.19;;;24.49;45.48
59329;BME280;45100;46.926;7.452;2023-07-13T14:03:18;95545.68;;;24.39;44.93
59329;BME280;45100;46.926;7.452;2023-07-13T14:05:41;95552.50;;;24.29;46.94
59329;BME280;45100;46.926;7.452;2023-07-13T14:08:19;95554.45;;;24.20;44.44